Time;durP1;ratioP1;P1;durP2;ratioP2;P2;SDS_P1;SDS_P2;PMS_P1;PMS_P2;Temp;Humidity;BMP_temperature;BMP_pressure;BME280_temperature;BME280_humidity;BME280_pressure;Samples;Min_cycle;Max_cycle;Signal;HPM_P1;HPM_P2
2022/03/27 00:01:10;;;;;;;16.30;11.30;;;;;;;7.73;75.45;101434.78;5022605;28;20224;-66
2022/03/27 00:03:35;;;;;;;19.83;12.93;;;;;;;7.72;76.03;101429.63;5019298;28;20537;-63
2022/03/27 00:06:01;;;;;;;18.47;13.17;;;;;;;7.71;76.50;101431.34;5023713;28;20540;-66
2022/03/27 00:08:27;;;;;;;19.33;12.27;;;;;;;7.72;76.33;101429.63;5025745;28;20270;-64
2022/03/27 00:13:36;;;;;;;19.40;12.67;;;;;;;7.76;76.07;101431.44;5033095;28;20619;-66
2022/03/27 00:16:02;;;;;;;18.57;11.87;;;;;;;7.83;75.52;101427.28;5031513;28;20186;-66
2022/03/27 00:18:27;;;;;;;18.57;12.40;;;;;;;7.91;74.91;101436.91;5023372;28;20220;-63
2022/03/27 00:20:53;;;;;;;22.63;12.47;;;;;;;7.92;75.29;101436.06;5025186;28;20194;-63
2022/03/27 00:23:18;;;;;;;17.10;11.47;;;;;;;7.94;75.39;101425.78;5025261;28;20706;-63
2022/03/27 00:25:45;;;;;;;23.93;12.27;;;;;;;7.93;76.44;101427.50;5025231;28;20191;-64
2022/03/27 00:28:11;;;;;;;19.43;11.87;;;;;;;7.93;76.68;101424.94;5023917;28;20303;-64
2022/03/27 00:30:38;;;;;;;19.03;11.83;;;;;;;7.92;76.49;101430.91;5027417;28;21438;-63
2022/03/27 00:33:04;;;;;;;19.73;12.10;;;;;;;7.87;76.68;101431.63;5034320;28;20178;-63
2022/03/27 00:35:29;;;;;;;17.03;11.37;;;;;;;7.85;76.85;101423.88;5026348;28;20573;-63
2022/03/27 00:37:55;;;;;;;18.97;12.90;;;;;;;7.80;76.31;101422.91;5021931;28;20204;-63
2022/03/27 00:40:20;;;;;;;18.70;12.53;;;;;;;7.77;76.15;101422.88;5032440;28;20185;-64
2022/03/27 00:42:46;;;;;;;19.87;12.37;;;;;;;7.75;76.61;101417.66;5036210;28;20274;-64
2022/03/27 00:45:11;;;;;;;18.77;12.10;;;;;;;7.71;77.10;101418.47;5034870;28;20197;-64
2022/03/27 00:47:36;;;;;;;22.60;12.37;;;;;;;7.67;77.24;101421.81;5024825;28;20560;-64
2022/03/27 00:50:02;;;;;;;18.93;12.37;;;;;;;7.62;77.53;101419.13;5027853;28;20218;-63
2022/03/27 00:52:28;;;;;;;16.90;12.47;;;;;;;7.60;77.67;101419.91;5029508;28;20220;-63
2022/03/27 00:54:53;;;;;;;20.67;12.47;;;;;;;7.59;77.87;101419.06;5024669;28;20195;-64
2022/03/27 00:57:18;;;;;;;23.90;13.17;;;;;;;7.62;77.95;101424.28;5025992;28;20275;-63
2022/03/27 00:59:44;;;;;;;24.13;13.33;;;;;;;7.58;77.87;101412.16;5022068;28;20304;-64
2022/03/27 01:02:10;;;;;;;22.37;13.77;;;;;;;7.55;77.45;101414.66;5021461;28;20278;-64
2022/03/27 01:04:43;;;;;;;20.70;12.87;;;;;;;7.56;77.57;101407.81;5027463;28;20196;-64
2022/03/27 01:07:08;;;;;;;20.67;12.17;;;;;;;7.52;77.77;101408.59;5020128;28;20483;-64
2022/03/27 01:09:36;;;;;;;20.03;13.07;;;;;;;7.51;77.75;101412.00;5017372;28;20214;-64
2022/03/27 01:12:23;;;;;;;20.13;12.30;;;;;;;7.44;78.35;101398.13;5018392;28;20224;-64
2022/03/27 01:14:49;;;;;;;21.00;12.87;;;;;;;7.39;78.53;101405.75;5023120;28;20185;-64
2022/03/27 01:17:17;;;;;;;21.37;14.10;;;;;;;7.35;78.43;101398.78;5023762;28;20191;-64
2022/03/27 01:19:48;;;;;;;18.97;13.37;;;;;;;7.31;78.74;101408.16;5023193;28;20209;-63
2022/03/27 01:22:14;;;;;;;21.57;13.73;;;;;;;7.27;78.67;101397.72;5024882;28;20212;-63
2022/03/27 01:24:41;;;;;;;21.20;13.80;;;;;;;7.21;79.02;101395.88;5023484;28;20245;-64
2022/03/27 01:27:06;;;;;;;23.00;14.33;;;;;;;7.19;79.59;101396.69;5024652;28;20192;-64
2022/03/27 01:29:32;;;;;;;18.30;13.73;;;;;;;7.12;79.86;101398.25;5021700;28;20222;-63
2022/03/27 01:31:58;;;;;;;21.93;13.93;;;;;;;7.08;79.92;101396.44;5023865;28;20208;-63
2022/03/27 01:34:24;;;;;;;21.40;14.63;;;;;;;7.03;80.43;101395.47;5020693;28;20207;-63
2022/03/27 01:36:49;;;;;;;18.57;13.13;;;;;;;6.99;80.70;101382.53;5022016;28;20653;-63
2022/03/27 01:39:16;;;;;;;19.83;13.07;;;;;;;6.96;81.11;101387.59;5030717;28;20775;-64
2022/03/27 01:41:43;;;;;;;16.80;12.53;;;;;;;6.93;81.02;101384.94;5023774;28;20198;-63
2022/03/27 01:44:11;;;;;;;23.20;14.27;;;;;;;6.96;80.80;101381.56;5023383;28;20246;-63
2022/03/27 01:46:39;;;;;;;20.30;14.47;;;;;;;6.94;80.81;101389.28;5015609;28;20193;-63
2022/03/27 01:49:07;;;;;;;29.20;14.50;;;;;;;6.92;80.89;101382.34;5026520;28;20229;-64
2022/03/27 01:51:34;;;;;;;23.30;13.90;;;;;;;6.88;80.84;101373.69;5027580;28;20685;-63
2022/03/27 01:54:00;;;;;;;20.77;13.90;;;;;;;6.84;81.05;101377.88;5021408;28;20194;-63
2022/03/27 01:56:26;;;;;;;20.00;13.10;;;;;;;6.81;81.05;101370.06;5024055;28;20276;-64
2022/03/27 01:58:51;;;;;;;22.70;14.40;;;;;;;6.77;81.39;101373.44;5026062;28;20228;-64
2022/03/27 02:01:19;;;;;;;19.33;14.00;;;;;;;6.78;81.20;101372.59;5025068;28;20269;-63
2022/03/27 02:03:45;;;;;;;23.83;14.50;;;;;;;6.77;81.20;101375.13;5018967;28;20192;-63
2022/03/27 02:06:12;;;;;;;21.53;14.53;;;;;;;6.77;80.83;101373.44;5026971;28;20200;-64
2022/03/27 02:08:40;;;;;;;23.10;14.77;;;;;;;6.74;80.71;101377.63;5021896;28;21462;-63
2022/03/27 02:11:06;;;;;;;22.27;14.53;;;;;;;6.71;80.90;101373.28;5020089;28;20210;-63
2022/03/27 02:13:32;;;;;;;23.50;14.20;;;;;;;6.65;81.34;101371.44;5022581;28;20206;-63
2022/03/27 02:15:58;;;;;;;18.63;14.00;;;;;;;6.60;81.53;101379.88;5030689;28;20180;-63
2022/03/27 02:18:28;;;;;;;21.90;14.27;;;;;;;6.52;81.87;101384.81;5029512;28;20241;-64
2022/03/27 02:20:54;;;;;;;19.93;13.80;;;;;;;6.48;82.26;101385.56;5021222;28;20191;-63
2022/03/27 02:23:21;;;;;;;21.10;14.57;;;;;;;6.41;82.48;101379.38;5021152;28;20680;-64
2022/03/27 02:25:46;;;;;;;20.10;13.63;;;;;;;6.38;82.49;101389.59;5021116;28;20217;-64
2022/03/27 02:28:11;;;;;;;20.83;14.27;;;;;;;6.38;82.18;101385.34;5025947;28;20276;-63
2022/03/27 02:30:36;;;;;;;19.03;14.57;;;;;;;6.37;82.04;101382.69;5019347;28;20211;-64
2022/03/27 02:33:02;;;;;;;19.80;13.87;;;;;;;6.35;82.13;101381.81;5019472;28;20687;-64
2022/03/27 02:35:27;;;;;;;27.00;14.87;;;;;;;6.33;82.11;101388.63;5020138;28;20642;-64
2022/03/27 02:37:53;;;;;;;24.17;14.83;;;;;;;6.28;82.29;101387.63;5023541;28;20186;-64
2022/03/27 02:40:19;;;;;;;21.00;14.60;;;;;;;6.21;82.50;101391.72;5024119;28;20206;-64
2022/03/27 02:42:44;;;;;;;19.10;13.43;;;;;;;6.16;82.68;101388.16;5024444;28;20253;-65
2022/03/27 02:45:10;;;;;;;23.90;15.53;;;;;;;6.12;82.90;101394.06;5023191;28;20273;-64
2022/03/27 02:47:35;;;;;;;18.10;14.60;;;;;;;6.03;83.61;101382.69;5021704;28;20192;-65
2022/03/27 02:50:02;;;;;;;23.50;14.83;;;;;;;6.00;83.95;101386.88;5021722;28;20250;-64
2022/03/27 02:52:28;;;;;;;20.97;14.47;;;;;;;5.93;84.33;101388.38;5022403;28;20300;-64
2022/03/27 02:54:53;;;;;;;21.97;14.50;;;;;;;5.89;84.28;101387.44;5022508;28;20301;-63
2022/03/27 02:57:19;;;;;;;21.83;14.37;;;;;;;5.86;84.47;101389.91;5023059;28;20188;-64
2022/03/27 02:59:45;;;;;;;18.60;13.33;;;;;;;5.83;84.73;101389.81;5018873;28;20219;-64
2022/03/27 03:02:10;;;;;;;22.30;14.17;;;;;;;5.80;84.87;101385.47;5024063;28;20187;-64
2022/03/27 03:04:36;;;;;;;22.17;14.10;;;;;;;5.76;85.53;101393.00;5024924;28;20196;-64
2022/03/27 03:07:02;;;;;;;19.93;14.50;;;;;;;5.69;85.74;101397.09;5023819;28;20205;-64
2022/03/27 03:09:27;;;;;;;22.37;13.67;;;;;;;5.63;86.89;101396.94;5020247;28;20306;-64
2022/03/27 03:11:53;;;;;;;19.27;13.43;;;;;;;5.53;87.58;101400.94;5018856;28;20214;-64
2022/03/27 03:14:18;;;;;;;19.87;14.87;;;;;;;5.46;87.72;101399.00;5020117;28;20189;-64
2022/03/27 03:16:46;;;;;;;22.63;14.63;;;;;;;5.36;88.29;101395.31;5022140;28;20215;-64
2022/03/27 03:19:11;;;;;;;18.67;14.40;;;;;;;5.28;88.12;101399.31;5026061;28;20315;-65
2022/03/27 03:21:37;;;;;;;18.87;13.90;;;;;;;5.21;88.61;101399.97;5032642;28;20274;-64
2022/03/27 03:24:02;;;;;;;21.23;14.53;;;;;;;5.17;88.09;101399.88;5024316;28;20269;-63
2022/03/27 03:26:28;;;;;;;18.60;13.77;;;;;;;5.15;87.91;101406.66;5021170;28;20236;-63
2022/03/27 03:28:53;;;;;;;22.50;15.00;;;;;;;5.15;87.70;101401.50;5019588;28;20550;-64
2022/03/27 03:31:18;;;;;;;21.33;14.73;;;;;;;5.15;88.12;101398.94;5027024;28;20465;-63
2022/03/27 03:33:44;;;;;;;22.87;15.67;;;;;;;5.15;88.05;101392.94;5026423;28;20215;-64
2022/03/27 03:36:09;;;;;;;22.80;15.67;;;;;;;5.13;88.00;101389.47;5025306;28;20192;-64
2022/03/27 03:38:36;;;;;;;24.63;14.90;;;;;;;5.09;88.03;101392.75;5025616;28;20745;-64
2022/03/27 03:41:01;;;;;;;19.63;13.33;;;;;;;5.03;87.69;101398.56;5027226;28;20184;-64
2022/03/27 03:43:27;;;;;;;19.47;13.87;;;;;;;5.01;87.69;101393.38;5021585;28;20194;-63
2022/03/27 03:45:52;;;;;;;25.47;14.83;;;;;;;5.01;87.59;101397.63;5026092;28;20202;-64
2022/03/27 03:48:17;;;;;;;19.93;13.50;;;;;;;4.98;87.67;101393.28;5018440;28;20326;-64
2022/03/27 03:50:43;;;;;;;24.40;14.87;;;;;;;4.93;87.96;101399.06;5026782;28;20257;-64
2022/03/27 03:53:08;;;;;;;19.40;14.23;;;;;;;4.92;88.19;101394.75;5024281;28;20362;-64
2022/03/27 03:55:34;;;;;;;22.90;13.47;;;;;;;4.84;88.83;101399.69;5022788;28;20187;-64
2022/03/27 03:58:00;;;;;;;17.53;13.50;;;;;;;4.75;89.14;101407.94;5031952;28;20590;-64
2022/03/27 04:00:26;;;;;;;15.80;11.77;;;;;;;4.64;89.69;101397.31;5030266;28;20232;-64
2022/03/27 04:02:51;;;;;;;16.63;13.33;;;;;;;4.52;89.96;101394.34;5040604;28;20223;-64
2022/03/27 04:05:17;;;;;;;16.77;13.10;;;;;;;4.43;90.47;101397.47;5044844;28;20241;-64
2022/03/27 04:07:43;;;;;;;17.43;12.27;;;;;;;4.33;90.55;101401.41;5033206;28;20196;-64
2022/03/27 04:10:09;;;;;;;16.10;11.93;;;;;;;4.25;90.68;101407.94;5026691;28;20192;-64
2022/03/27 04:12:34;;;;;;;15.60;11.43;;;;;;;4.15;90.98;101404.22;5025338;28;20651;-64
2022/03/27 04:15:00;;;;;;;14.57;11.93;;;;;;;4.07;91.45;101400.47;5031818;28;20187;-64
2022/03/27 04:17:25;;;;;;;17.13;12.80;;;;;;;4.02;91.48;101404.56;5027345;28;20196;-64
2022/03/27 04:19:50;;;;;;;15.20;11.90;;;;;;;3.96;91.57;101400.09;5023793;28;20215;-64
2022/03/27 04:22:16;;;;;;;14.60;11.93;;;;;;;3.91;91.80;101401.63;5032499;28;20190;-64
2022/03/27 04:24:42;;;;;;;14.73;11.77;;;;;;;3.86;91.99;101409.13;5036853;28;20210;-63
2022/03/27 04:27:07;;;;;;;16.47;12.30;;;;;;;3.82;92.20;101404.72;5026746;28;20571;-64
2022/03/27 04:29:33;;;;;;;15.27;11.17;;;;;;;3.78;92.53;101405.41;5027031;28;20219;-64
2022/03/27 04:31:58;;;;;;;14.37;11.90;;;;;;;3.74;92.86;101406.13;5031156;28;20215;-64
2022/03/27 04:34:24;;;;;;;16.53;11.63;;;;;;;3.66;92.97;101406.72;5033162;28;20261;-64
2022/03/27 04:36:49;;;;;;;18.27;12.73;;;;;;;3.59;92.96;101399.59;5030644;28;20188;-64
2022/03/27 04:39:15;;;;;;;20.67;15.10;;;;;;;3.57;93.17;101403.78;5037341;28;20211;-64
2022/03/27 04:41:40;;;;;;;21.53;14.93;;;;;;;3.58;93.44;101404.69;5044110;28;20191;-64
2022/03/27 04:44:08;;;;;;;25.33;15.40;;;;;;;3.60;93.33;101398.78;5036221;28;20205;-63
2022/03/27 04:46:33;;;;;;;20.63;14.43;;;;;;;3.60;93.49;101403.91;5026959;28;20267;-64
2022/03/27 04:48:59;;;;;;;19.73;13.67;;;;;;;3.61;93.47;101400.53;5025722;28;20218;-64
2022/03/27 04:51:24;;;;;;;15.47;13.13;;;;;;;3.60;93.31;101406.47;5026635;28;20238;-64
2022/03/27 04:53:50;;;;;;;16.83;12.33;;;;;;;3.59;93.05;101398.75;5026147;28;20187;-64
2022/03/27 04:56:16;;;;;;;14.93;12.07;;;;;;;3.57;93.21;101408.06;5042339;28;20191;-64
2022/03/27 04:58:41;;;;;;;15.70;12.13;;;;;;;3.51;93.46;101409.56;5026741;28;20219;-64
2022/03/27 05:01:07;;;;;;;18.47;13.13;;;;;;;3.45;93.61;101411.00;5031150;28;20199;-64
2022/03/27 05:03:32;;;;;;;15.37;12.27;;;;;;;3.37;93.77;101414.97;5021779;28;20233;-64
2022/03/27 05:05:59;;;;;;;17.77;12.13;;;;;;;3.27;93.79;101417.16;5025121;28;20250;-65
2022/03/27 05:08:25;;;;;;;18.07;12.33;;;;;;;3.18;93.59;101416.81;5028273;28;20252;-64
2022/03/27 05:10:50;;;;;;;13.53;11.40;;;;;;;3.10;93.68;101415.66;5024428;28;20207;-64
2022/03/27 05:13:18;;;;;;;14.23;11.60;;;;;;;3.03;93.98;101414.50;5024386;28;20195;-64
2022/03/27 05:15:44;;;;;;;16.27;12.33;;;;;;;2.99;94.15;101417.78;5027542;28;20553;-64
2022/03/27 05:18:10;;;;;;;14.87;12.10;;;;;;;2.96;94.10;101418.50;5027874;28;20215;-63
2022/03/27 05:20:39;;;;;;;18.50;13.23;;;;;;;2.94;94.21;101407.34;5027740;28;20198;-64
2022/03/27 05:23:05;;;;;;;17.47;12.40;;;;;;;2.92;94.45;101416.66;5021931;28;20191;-64
2022/03/27 05:25:38;;;;;;;15.10;11.80;;;;;;;2.92;94.32;101416.66;5024578;28;21063;-64
2022/03/27 05:28:04;;;;;;;16.53;12.93;;;;;;;2.91;94.42;101417.47;5030746;28;20219;-64
2022/03/27 05:30:31;;;;;;;15.77;11.93;;;;;;;2.93;94.46;101414.94;5028049;28;20600;-64
2022/03/27 05:32:56;;;;;;;15.77;12.50;;;;;;;2.93;94.42;101418.41;5023001;28;20187;-64
2022/03/27 05:35:22;;;;;;;16.33;12.97;;;;;;;2.94;94.37;101415.03;5026586;28;20202;-64
2022/03/27 05:37:49;;;;;;;16.13;12.57;;;;;;;2.98;94.29;101411.75;5030117;28;20276;-63
2022/03/27 05:40:18;;;;;;;17.63;13.13;;;;;;;3.05;94.59;101415.44;5025697;28;20187;-64
2022/03/27 05:42:44;;;;;;;17.27;12.67;;;;;;;3.13;93.96;101419.19;5019863;28;20313;-64
2022/03/27 05:45:10;;;;;;;17.53;13.07;;;;;;;3.25;93.98;101417.91;5021804;28;20202;-63
2022/03/27 05:47:41;;;;;;;16.33;12.57;;;;;;;3.43;93.70;101425.44;5023654;28;20261;-63
2022/03/27 05:50:07;;;;;;;18.63;13.00;;;;;;;3.60;92.91;101434.63;5021909;28;20241;-63
2022/03/27 05:52:32;;;;;;;16.27;12.47;;;;;;;3.76;92.30;101437.78;5029183;28;20223;-62
2022/03/27 05:54:58;;;;;;;16.53;12.67;;;;;;;3.95;91.88;101436.75;5025354;28;20180;-63
2022/03/27 05:57:23;;;;;;;15.50;12.33;;;;;;;4.14;91.16;101446.00;5028432;28;20194;-63
2022/03/27 05:59:49;;;;;;;17.97;12.63;;;;;;;4.26;90.47;101445.56;5024965;28;20246;-63
2022/03/27 06:02:15;;;;;;;17.70;13.33;;;;;;;4.35;90.23;101447.56;5022188;28;20196;-63
2022/03/27 06:04:41;;;;;;;15.63;12.23;;;;;;;4.51;90.17;101455.00;5026752;28;20184;-64
2022/03/27 06:07:07;;;;;;;17.37;13.20;;;;;;;4.60;89.54;101446.75;5030393;28;20557;-63
2022/03/27 06:09:33;;;;;;;15.03;12.50;;;;;;;4.63;89.70;101451.97;5022073;28;20237;-63
2022/03/27 06:11:59;;;;;;;17.57;12.13;;;;;;;4.74;89.74;101447.22;5021869;28;20682;-63
2022/03/27 06:14:24;;;;;;;14.27;11.80;;;;;;;4.99;89.14;101450.59;5022895;28;20295;-63
2022/03/27 06:16:49;;;;;;;16.40;12.57;;;;;;;5.26;88.39;101449.72;5024815;28;20596;-63
2022/03/27 06:19:15;;;;;;;15.73;12.17;;;;;;;5.52;87.68;101449.69;5024120;28;20551;-63
2022/03/27 06:21:40;;;;;;;14.10;11.77;;;;;;;5.89;87.02;101450.78;5022708;28;20195;-65
2022/03/27 06:24:06;;;;;;;17.30;13.03;;;;;;;6.31;85.68;101452.84;5030024;28;20198;-63
2022/03/27 06:26:31;;;;;;;19.87;14.53;;;;;;;6.65;84.59;101447.75;5024521;28;20470;-64
2022/03/27 06:28:56;;;;;;;20.77;13.63;;;;;;;6.82;84.48;101449.00;5023366;28;20210;-64
2022/03/27 06:31:22;;;;;;;22.37;14.97;;;;;;;6.98;83.63;101450.28;5022434;28;20586;-64
2022/03/27 06:33:47;;;;;;;21.73;14.47;;;;;;;7.15;82.93;101445.53;5018290;28;20192;-64
2022/03/27 06:36:13;;;;;;;24.37;15.80;;;;;;;7.50;81.07;101449.75;5030919;28;20600;-63
2022/03/27 06:38:38;;;;;;;21.93;14.50;;;;;;;7.71;79.54;101446.81;5033064;28;20738;-63
2022/03/27 06:41:06;;;;;;;20.83;15.33;;;;;;;8.15;78.68;101445.09;5027284;28;20218;-63
2022/03/27 06:43:32;;;;;;;22.60;15.07;;;;;;;8.37;77.73;101451.53;5030197;28;20199;-64
2022/03/27 06:45:58;;;;;;;22.30;14.70;;;;;;;8.41;77.13;101458.47;5035231;28;20705;-64
2022/03/27 06:48:24;;;;;;;24.17;15.43;;;;;;;8.36;77.57;101460.97;5031406;28;20220;-63
2022/03/27 06:50:50;;;;;;;17.87;14.40;;;;;;;8.43;77.39;101455.94;5026302;28;20221;-64
2022/03/27 06:53:20;;;;;;;21.63;14.37;;;;;;;8.44;77.15;101460.28;5033013;28;20645;-64
2022/03/27 06:55:48;;;;;;;22.27;14.87;;;;;;;8.48;77.24;101464.66;5028136;28;20199;-63
2022/03/27 06:58:14;;;;;;;20.97;14.70;;;;;;;8.64;76.94;101463.25;5026996;28;20224;-64
2022/03/27 07:03:24;;;;;;;20.40;14.53;;;;;;;8.99;76.20;101473.31;5028814;28;20248;-63
2022/03/27 07:05:50;;;;;;;19.20;14.83;;;;;;;9.26;75.50;101478.03;5028582;28;20193;-64
2022/03/27 07:08:17;;;;;;;26.07;16.27;;;;;;;9.54;74.64;101473.28;5029359;28;20216;-63
2022/03/27 07:10:44;;;;;;;25.17;14.93;;;;;;;9.75;74.06;101474.44;5034323;28;20187;-63
2022/03/27 07:13:14;;;;;;;20.97;15.17;;;;;;;10.00;73.34;101473.03;5031897;28;21804;-64
2022/03/27 07:15:41;;;;;;;21.20;14.63;;;;;;;10.25;73.07;101467.31;5028113;28;20666;-64
2022/03/27 07:18:08;;;;;;;22.80;16.07;;;;;;;10.21;71.95;101462.09;5029590;28;20214;-64
2022/03/27 07:20:40;;;;;;;19.73;13.87;;;;;;;10.42;72.45;101462.34;5026102;28;20219;-64
2022/03/27 07:23:09;;;;;;;18.70;13.57;;;;;;;10.58;72.31;101456.47;5036462;28;20191;-64
2022/03/27 07:25:36;;;;;;;21.93;15.33;;;;;;;10.49;71.89;101457.22;5021500;28;20188;-63
2022/03/27 07:28:04;;;;;;;19.67;14.97;;;;;;;10.54;72.16;101466.78;5028254;28;20713;-64
2022/03/27 07:30:30;;;;;;;22.53;14.70;;;;;;;10.53;72.23;101458.13;5020221;28;20194;-64
2022/03/27 07:32:56;;;;;;;20.30;14.97;;;;;;;10.47;72.19;101458.94;5026605;28;20558;-64
2022/03/27 07:35:21;;;;;;;20.50;14.40;;;;;;;10.53;72.20;101455.53;5022094;28;20306;-64
2022/03/27 07:37:49;;;;;;;19.90;15.17;;;;;;;10.53;72.25;101463.31;5024921;28;20286;-64
2022/03/27 07:40:15;;;;;;;20.23;15.07;;;;;;;10.54;71.52;101453.84;5029313;28;20203;-64
2022/03/27 07:42:49;;;;;;;23.40;15.20;;;;;;;10.62;72.13;101457.34;5028838;28;20186;-63
2022/03/27 07:45:18;;;;;;;21.40;14.80;;;;;;;10.76;72.04;101457.50;5022815;28;20191;-64
2022/03/27 07:47:44;;;;;;;24.97;16.20;;;;;;;10.82;71.69;101460.13;5026727;28;20192;-64
2022/03/27 07:50:11;;;;;;;25.23;15.70;;;;;;;10.75;71.63;101453.16;5026512;28;20281;-64
2022/03/27 07:52:37;;;;;;;20.57;15.27;;;;;;;10.74;71.78;101460.06;5026783;28;20224;-64
2022/03/27 07:55:04;;;;;;;19.47;14.90;;;;;;;10.86;72.00;101464.47;5020183;28;20191;-64
2022/03/27 07:57:29;;;;;;;22.60;16.13;;;;;;;10.89;71.69;101467.09;5020411;28;20230;-64
2022/03/27 07:59:54;;;;;;;22.87;15.03;;;;;;;10.93;72.08;101462.81;5015957;28;20311;-64
2022/03/27 08:02:21;;;;;;;22.33;15.60;;;;;;;10.86;71.43;101461.03;5027641;28;20525;-63
2022/03/27 08:04:46;;;;;;;22.37;15.50;;;;;;;10.92;72.12;101454.19;5021534;28;20184;-65
2022/03/27 08:07:12;;;;;;;23.83;16.17;;;;;;;10.93;71.40;101453.34;5028800;28;20268;-64
2022/03/27 08:09:37;;;;;;;22.63;15.70;;;;;;;10.97;71.65;101456.81;5020069;28;20200;-63
2022/03/27 08:12:04;;;;;;;21.40;15.23;;;;;;;10.97;71.54;101462.84;5024276;28;20219;-63
2022/03/27 08:14:31;;;;;;;22.10;15.83;;;;;;;11.01;71.07;101462.88;5035137;28;20222;-63
2022/03/27 08:16:59;;;;;;;25.93;15.80;;;;;;;11.05;71.93;101446.50;5022979;28;20288;-63
2022/03/27 08:19:25;;;;;;;24.70;16.07;;;;;;;11.13;71.82;101450.00;5027801;28;20354;-63
2022/03/27 08:21:51;;;;;;;24.50;15.83;;;;;;;11.18;71.65;101455.25;5019465;28;20678;-61
2022/03/27 08:24:17;;;;;;;19.93;14.83;;;;;;;11.36;71.70;101457.94;5026004;28;20187;-61
2022/03/27 08:27:00;;;;;;;24.80;16.53;;;;;;;11.37;71.55;101464.00;5025936;28;20284;-63
2022/03/27 08:29:26;;;;;;;19.67;15.53;;;;;;;11.47;71.87;101457.16;5025072;28;20306;-61
2022/03/27 08:31:52;;;;;;;22.60;15.10;;;;;;;11.58;71.53;101461.53;5023201;28;20678;-64
2022/03/27 08:34:19;;;;;;;20.00;15.40;;;;;;;11.71;71.55;101465.06;5023672;28;20191;-63
2022/03/27 08:36:46;;;;;;;22.37;16.83;;;;;;;11.83;71.73;101459.09;5017311;28;20185;-63
2022/03/27 08:39:11;;;;;;;23.60;16.40;;;;;;;11.78;71.28;101460.78;5017682;28;20219;-63
2022/03/27 08:41:49;;;;;;;25.17;17.70;;;;;;;11.89;70.91;101460.84;5034621;28;20213;-63
2022/03/27 08:44:18;;;;;;;23.47;16.03;;;;;;;11.98;70.69;101465.22;5027132;28;20283;-63
2022/03/27 08:46:45;;;;;;;21.77;15.20;;;;;;;12.04;71.44;101465.25;5020546;28;20190;-63
2022/03/27 08:49:33;;;;;;;20.90;15.20;;;;;;;12.16;70.87;101469.63;5018913;28;20700;-63
2022/03/27 08:52:15;;;;;;;22.80;16.80;;;;;;;12.25;70.23;101476.56;5019454;28;20205;-63
2022/03/27 08:54:43;;;;;;;21.87;16.90;;;;;;;12.35;70.38;101457.56;5019514;28;20317;-63
2022/03/27 08:57:21;;;;;;;22.93;16.60;;;;;;;12.49;70.40;101453.25;5018323;28;20189;-64
2022/03/27 08:59:49;;;;;;;20.93;15.80;;;;;;;12.58;70.02;101451.56;5022411;28;20442;-63
2022/03/27 09:02:15;;;;;;;22.90;16.13;;;;;;;12.64;69.79;101454.16;5030094;28;20222;-63
2022/03/27 09:04:41;;;;;;;20.57;15.33;;;;;;;12.72;69.27;101454.16;5032705;28;20211;-63
2022/03/27 09:07:06;;;;;;;21.33;15.60;;;;;;;12.85;69.84;101455.03;5028506;28;20640;-64
2022/03/27 09:09:33;;;;;;;25.03;15.23;;;;;;;12.94;70.02;101452.44;5029072;28;20227;-63
2022/03/27 09:12:04;;;;;;;27.90;16.93;;;;;;;13.04;69.59;101461.09;5028524;28;20572;-64
2022/03/27 09:14:32;;;;;;;23.10;15.97;;;;;;;13.14;69.12;101469.75;5020797;28;20198;-63
2022/03/27 09:17:01;;;;;;;21.20;14.83;;;;;;;13.31;68.26;101468.00;5017413;28;20290;-64
2022/03/27 09:19:41;;;;;;;25.57;15.03;;;;;;;13.42;66.90;101460.22;5019162;28;20209;-64
2022/03/27 09:22:15;;;;;;;20.70;14.97;;;;;;;13.57;66.62;101470.59;5027102;28;20230;-64
2022/03/27 09:24:42;;;;;;;22.50;14.50;;;;;;;13.72;67.11;101467.06;5021579;28;20203;-63
2022/03/27 09:27:08;;;;;;;22.03;14.60;;;;;;;13.82;67.00;101467.06;5019848;28;20213;-64
2022/03/27 09:29:58;;;;;;;21.77;15.27;;;;;;;13.89;66.89;101467.91;5011152;28;20697;-63
2022/03/27 09:32:27;;;;;;;21.17;14.60;;;;;;;14.00;66.76;101468.72;5012430;28;20251;-63
2022/03/27 09:35:10;;;;;;;24.40;14.77;;;;;;;14.08;66.21;101473.91;5023249;28;20202;-62
2022/03/27 09:37:37;;;;;;;20.90;15.77;;;;;;;14.17;66.04;101461.72;5026145;28;20195;-64
2022/03/27 09:40:04;;;;;;;19.50;14.67;;;;;;;14.32;65.25;101462.50;5017238;28;20223;-61
2022/03/27 09:42:30;;;;;;;18.53;14.00;;;;;;;14.38;65.59;101454.63;5020317;28;20559;-63
2022/03/27 09:45:19;;;;;;;20.37;14.67;;;;;;;14.46;65.33;101458.06;5028339;28;20190;-63
2022/03/27 09:47:48;;;;;;;21.10;14.23;;;;;;;14.55;64.85;101446.72;5027839;28;20194;-62
2022/03/27 09:50:28;;;;;;;18.03;14.17;;;;;;;14.63;64.36;101444.91;5021669;28;20207;-62
2022/03/27 09:53:29;;;;;;;18.20;13.63;;;;;;;14.72;64.40;101444.00;5029398;28;20211;-62
2022/03/27 09:56:00;;;;;;;17.53;13.73;;;;;;;14.86;64.43;101436.09;5021631;28;20187;-63
2022/03/27 09:58:45;;;;;;;21.83;15.03;;;;;;;15.04;64.57;101429.00;5026802;28;20205;-62
2022/03/27 10:01:20;;;;;;;19.63;14.40;;;;;;;15.12;63.81;101427.16;5022461;28;20191;-62
2022/03/27 10:04:13;;;;;;;19.33;14.00;;;;;;;15.18;64.12;101432.34;5028676;28;20203;-62
2022/03/27 10:06:40;;;;;;;20.57;13.83;;;;;;;15.31;63.21;101425.25;5025473;28;20275;-64
2022/03/27 10:09:10;;;;;;;18.00;12.97;;;;;;;15.47;63.40;101423.34;5027306;28;20199;-63
2022/03/27 10:11:37;;;;;;;22.40;13.67;;;;;;;15.49;62.82;101418.09;5027859;28;20219;-62
2022/03/27 10:14:04;;;;;;;17.10;12.97;;;;;;;15.59;62.41;101424.94;5028863;28;20225;-61
2022/03/27 10:16:33;;;;;;;19.83;13.70;;;;;;;15.76;62.67;101421.25;5018766;28;20191;-63
2022/03/27 10:19:03;;;;;;;22.43;13.70;;;;;;;15.81;61.86;101414.25;5027820;28;20273;-62
2022/03/27 10:21:29;;;;;;;15.10;12.77;;;;;;;15.89;61.61;101407.19;5016922;28;20667;-63
2022/03/27 10:24:01;;;;;;;18.67;13.03;;;;;;;16.02;61.24;101397.47;5028395;28;20245;-62
2022/03/27 10:26:27;;;;;;;19.60;13.60;;;;;;;16.07;61.23;101392.16;5016596;28;20196;-62
2022/03/27 10:28:53;;;;;;;23.07;14.40;;;;;;;16.07;61.47;101400.88;5017236;28;20691;-62
2022/03/27 10:31:21;;;;;;;18.00;13.33;;;;;;;16.17;60.60;101400.72;5025617;28;20204;-63
2022/03/27 10:33:50;;;;;;;18.83;13.37;;;;;;;16.21;60.68;101398.06;5024401;28;20357;-63
2022/03/27 10:36:40;;;;;;;18.47;12.97;;;;;;;16.24;59.79;101389.31;5025223;28;21011;-62
2022/03/27 10:39:13;;;;;;;18.90;12.17;;;;;;;16.41;59.33;101382.06;5019564;28;20222;-65
2022/03/27 10:42:00;;;;;;;17.60;12.53;;;;;;;16.42;59.32;101394.25;5025492;28;20219;-62
2022/03/27 10:44:41;;;;;;;16.27;12.23;;;;;;;16.55;58.84;101373.19;5026623;28;20205;-62
2022/03/27 10:47:19;;;;;;;17.03;11.57;;;;;;;16.61;59.53;101391.34;5020101;28;20692;-63
2022/03/27 10:50:02;;;;;;;19.43;12.83;;;;;;;16.66;57.77;101388.66;5035091;28;20212;-62
2022/03/27 10:52:31;;;;;;;18.53;12.97;;;;;;;16.67;57.49;101378.19;5025777;28;20265;-62
2022/03/27 10:55:00;;;;;;;17.93;12.27;;;;;;;16.74;58.20;101379.78;5020169;28;20601;-63
2022/03/27 10:57:37;;;;;;;19.67;12.97;;;;;;;16.77;57.45;101378.91;5022461;28;20179;-63
2022/03/27 11:00:06;;;;;;;22.33;12.57;;;;;;;16.81;56.76;101375.31;5013457;28;20215;-62
2022/03/27 11:03:00;;;;;;;16.37;11.20;;;;;;;16.91;57.14;101371.66;5024625;28;20184;-62
2022/03/27 11:05:29;;;;;;;14.87;11.87;;;;;;;17.08;57.26;101378.38;5007216;28;20196;-63
2022/03/27 11:08:17;;;;;;;18.93;12.57;;;;;;;16.98;57.09;101379.41;5026464;28;20950;-63
2022/03/27 11:11:03;;;;;;;20.03;12.43;;;;;;;16.98;57.05;101367.22;5021820;28;20270;-63
2022/03/27 11:13:28;;;;;;;17.67;11.50;;;;;;;17.12;57.33;101359.09;5034824;28;20223;-63
2022/03/27 11:16:10;;;;;;;19.33;12.23;;;;;;;17.24;55.80;101358.00;5017038;28;20201;-61
2022/03/27 11:18:43;;;;;;;21.03;12.97;;;;;;;17.20;56.04;101358.94;5026042;28;20212;-63
2022/03/27 11:21:11;;;;;;;16.57;11.63;;;;;;;17.30;56.78;101357.03;5025534;28;20228;-63
2022/03/27 11:23:38;;;;;;;15.70;11.60;;;;;;;17.36;55.63;101362.16;5023717;28;20270;-62